createdAt,value
2017-08-29T06:04:17.126Z,26.87
2017-08-29T06:06:19.594Z,30.23
2017-08-29T06:08:22.072Z,31.00
2017-08-29T06:10:24.676Z,27.63
2017-08-29T06:12:27.146Z,32.67
2017-08-29T06:14:29.621Z,24.93
2017-08-29T06:16:32.186Z,29.37
2017-08-29T06:18:34.646Z,29.73
2017-08-29T06:20:37.107Z,27.63
2017-08-29T06:22:39.656Z,31.50
2017-08-29T06:24:42.113Z,30.07
2017-08-29T06:26:44.595Z,24.80
2017-08-29T06:28:47.175Z,32.23
2017-08-29T06:30:49.667Z,29.90
2017-08-29T06:32:52.141Z,30.20
2017-08-29T06:34:54.785Z,28.53
2017-08-29T06:36:57.237Z,32.37
2017-08-29T06:38:59.720Z,29.40
2017-08-29T06:41:02.265Z,25.60
2017-08-29T06:43:04.756Z,43.47
2017-08-29T06:45:07.992Z,33.93
2017-08-29T06:47:10.542Z,30.73
2017-08-29T06:49:13.035Z,30.80
2017-08-29T06:51:15.507Z,29.50
2017-08-29T06:53:18.073Z,35.30
2017-08-29T06:55:20.548Z,29.87
2017-08-29T06:57:23.074Z,32.20
2017-08-29T06:59:25.616Z,35.10
2017-08-29T07:01:28.083Z,30.07
2017-08-29T07:03:30.560Z,30.37
2017-08-29T07:05:33.150Z,27.50
2017-08-29T07:07:35.623Z,39.03
2017-08-29T07:09:38.103Z,33.00
2017-08-29T07:11:40.732Z,30.27
2017-08-29T07:13:43.224Z,31.23
2017-08-29T07:15:45.682Z,32.07
2017-08-29T07:17:48.235Z,29.97
2017-08-29T07:19:50.705Z,39.40
2017-08-29T07:21:53.157Z,29.83
2017-08-29T07:23:55.677Z,32.53
2017-08-29T07:25:58.149Z,30.00
2017-08-29T07:28:00.629Z,27.73
2017-08-29T07:30:03.173Z,35.53
2017-08-29T07:32:05.667Z,27.27
2017-08-29T07:34:08.155Z,30.57
2017-08-29T07:36:10.705Z,30.57
2017-08-29T07:38:13.223Z,31.63
2017-08-29T07:40:15.700Z,30.40
2017-08-29T07:42:18.250Z,31.60
2017-08-29T07:44:20.743Z,32.37
2017-08-29T07:46:23.216Z,31.50
2017-08-29T07:48:25.819Z,27.93
2017-08-29T07:50:28.414Z,38.77
2017-08-29T07:52:30.892Z,36.10
2017-08-29T07:54:33.505Z,32.33
2017-08-29T07:56:35.971Z,27.57
2017-08-29T07:58:38.494Z,31.07
2017-08-29T08:00:41.047Z,30.13
2017-08-29T08:02:43.555Z,33.53
2017-08-29T08:04:46.014Z,28.27
2017-08-29T08:06:48.553Z,25.97
2017-08-29T08:08:51.024Z,25.70
2017-08-29T08:10:53.476Z,30.03
2017-08-29T08:12:56.658Z,29.93
2017-08-29T08:14:59.132Z,29.10
2017-08-29T08:17:01.600Z,25.60
2017-08-29T08:19:04.782Z,29.73
2017-08-29T08:21:07.257Z,27.97
2017-08-29T08:23:09.826Z,33.30
2017-08-29T08:25:12.408Z,28.47
2017-08-29T08:27:14.896Z,33.90
2017-08-29T08:29:17.421Z,24.53
2017-08-29T08:31:19.973Z,27.90
2017-08-29T08:33:22.445Z,31.63
2017-08-29T08:35:24.924Z,29.70
2017-08-29T08:37:27.448Z,28.07
2017-08-29T08:39:29.906Z,29.33
2017-08-29T08:41:32.379Z,29.10
2017-08-29T08:43:34.940Z,31.90
2017-08-29T08:45:37.430Z,26.30
2017-08-29T08:47:39.946Z,30.23
2017-08-29T08:49:42.484Z,30.70
2017-08-29T08:51:44.954Z,29.03
2017-08-29T08:53:47.425Z,33.07
2017-08-29T08:55:49.973Z,34.73
2017-08-29T08:57:52.451Z,35.40
2017-08-29T08:59:54.949Z,25.00
2017-08-29T09:01:57.562Z,30.07
2017-08-29T09:04:00.033Z,32.67
2017-08-29T09:06:02.552Z,27.40
2017-08-29T09:08:05.112Z,24.63
2017-08-29T09:10:07.584Z,35.33
2017-08-29T09:12:10.463Z,24.70
2017-08-29T09:14:13.038Z,29.90
2017-08-29T09:16:15.516Z,27.30
2017-08-29T09:18:17.986Z,29.17
2017-08-29T09:20:20.658Z,22.80
2017-08-29T09:22:23.160Z,27.53
2017-08-29T09:24:26.110Z,26.43
2017-08-29T09:26:28.706Z,32.50
2017-08-29T09:28:31.180Z,31.63
2017-08-29T09:30:33.763Z,26.43
2017-08-29T09:32:36.292Z,26.73
2017-08-29T09:34:38.803Z,24.93
2017-08-29T09:36:41.345Z,27.97
2017-08-29T09:38:43.876Z,30.80
2017-08-29T09:40:46.367Z,27.97
2017-08-29T09:42:48.838Z,33.63
2017-08-29T09:44:51.382Z,26.10
2017-08-29T09:46:53.902Z,27.93
2017-08-29T09:48:56.393Z,25.10
2017-08-29T09:50:58.928Z,25.77
2017-08-29T09:53:01.465Z,27.40
2017-08-29T09:55:03.973Z,27.47
2017-08-29T09:57:06.506Z,27.70
2017-08-29T09:59:08.976Z,26.40
2017-08-29T10:01:11.445Z,32.47
2017-08-29T10:03:13.994Z,30.47
2017-08-29T10:05:16.488Z,30.13
2017-08-29T10:07:18.964Z,30.27
2017-08-29T10:09:21.505Z,23.50
2017-08-29T10:11:23.990Z,30.57
2017-08-29T10:13:26.472Z,22.83
2017-08-29T10:15:29.043Z,27.90
2017-08-29T10:17:31.548Z,28.73
2017-08-29T10:19:34.013Z,27.20
2017-08-29T10:21:36.548Z,24.67
2017-08-29T10:23:39.017Z,29.17
2017-08-29T10:25:41.501Z,28.63
2017-08-29T10:27:44.065Z,24.30
2017-08-29T10:29:46.596Z,24.17
2017-08-29T10:31:49.078Z,23.83
2017-08-29T10:33:51.624Z,25.70
2017-08-29T10:35:54.102Z,24.40
2017-08-29T10:37:56.727Z,25.07
2017-08-29T10:39:59.278Z,24.67
2017-08-29T10:42:01.774Z,25.67
2017-08-29T10:44:04.248Z,23.60
2017-08-29T10:46:06.822Z,19.10
2017-08-29T10:48:09.341Z,18.63
2017-08-29T10:50:11.938Z,18.37
2017-08-29T10:52:14.485Z,17.93
2017-08-29T10:54:16.963Z,19.90
2017-08-29T10:56:19.455Z,14.97
2017-08-29T10:58:22.045Z,22.43
2017-08-29T11:00:24.535Z,20.97
2017-08-29T11:02:27.050Z,15.73
2017-08-29T11:04:29.585Z,14.37
2017-08-29T11:06:32.141Z,17.43
2017-08-29T11:08:34.611Z,16.37
2017-08-29T11:10:37.169Z,17.93
2017-08-29T11:12:39.620Z,16.90
2017-08-29T11:14:42.129Z,18.33
2017-08-29T11:16:44.683Z,17.03
2017-08-29T11:18:47.154Z,17.47
2017-08-29T11:20:49.624Z,19.33
2017-08-29T11:22:52.168Z,17.47
2017-08-29T11:24:54.655Z,18.90
2017-08-29T11:26:57.148Z,16.67
2017-08-29T11:28:59.693Z,19.17
2017-08-29T11:31:02.205Z,16.53
2017-08-29T11:33:04.748Z,15.57
2017-08-29T11:35:07.294Z,19.93
2017-08-29T11:37:09.788Z,19.23
2017-08-29T11:39:12.269Z,15.27
2017-08-29T11:41:14.842Z,18.07
2017-08-29T11:43:17.317Z,16.43
2017-08-29T11:45:19.822Z,14.20
2017-08-29T11:47:22.378Z,19.30
2017-08-29T11:49:27.394Z,15.10
2017-08-29T11:51:30.568Z,17.13
2017-08-29T11:53:33.116Z,14.33
2017-08-29T11:55:35.618Z,15.00
2017-08-29T11:57:38.133Z,16.20
2017-08-29T11:59:40.727Z,16.20
2017-08-29T12:01:43.193Z,13.77
2017-08-29T12:03:45.665Z,13.77
2017-08-29T12:05:48.235Z,16.83
2017-08-29T12:07:50.725Z,11.53
2017-08-29T12:09:53.251Z,14.03
2017-08-29T12:11:55.774Z,16.53
2017-08-29T12:13:58.261Z,11.63
2017-08-29T12:16:00.753Z,12.30
2017-08-29T12:18:03.308Z,11.30
2017-08-29T12:20:05.798Z,10.07
2017-08-29T12:22:08.317Z,22.03
2017-08-29T12:24:10.869Z,14.50
2017-08-29T12:26:13.348Z,15.90
2017-08-29T12:28:15.846Z,14.50
2017-08-29T12:30:18.382Z,13.13
2017-08-29T12:32:20.875Z,11.40
2017-08-29T12:34:23.390Z,10.70
2017-08-29T12:36:25.918Z,14.07
2017-08-29T12:38:28.392Z,11.43
2017-08-29T12:40:30.882Z,15.37
2017-08-29T12:42:33.419Z,15.10
2017-08-29T12:44:35.893Z,13.80
2017-08-29T12:46:38.353Z,10.73
2017-08-29T12:48:40.897Z,12.07
2017-08-29T12:50:43.392Z,13.70
2017-08-29T12:52:45.942Z,12.77
2017-08-29T12:54:48.492Z,11.27
2017-08-29T12:56:50.988Z,11.53
2017-08-29T12:58:53.481Z,13.03
2017-08-29T13:00:56.021Z,10.60
2017-08-29T13:02:58.502Z,10.50
2017-08-29T13:05:00.981Z,12.73
2017-08-29T13:07:03.507Z,13.67
2017-08-29T13:09:06.004Z,11.90
2017-08-29T13:11:08.538Z,10.63
2017-08-29T13:13:11.080Z,13.27
2017-08-29T13:15:13.592Z,10.63
2017-08-29T13:17:16.077Z,11.53
2017-08-29T13:19:18.636Z,15.77
2017-08-29T13:21:21.144Z,10.63
2017-08-29T13:23:23.649Z,10.50
2017-08-29T13:25:26.195Z,14.10
2017-08-29T13:27:28.678Z,14.90
2017-08-29T13:29:31.167Z,12.60
2017-08-29T13:31:33.745Z,12.87
2017-08-29T13:33:36.227Z,12.37
2017-08-29T13:35:38.716Z,12.10
2017-08-29T13:37:41.251Z,9.90
2017-08-29T13:39:43.726Z,11.33
2017-08-29T13:41:46.194Z,11.20
2017-08-29T13:43:48.766Z,19.23
2017-08-29T13:45:51.259Z,12.23
2017-08-29T13:47:53.790Z,11.50
2017-08-29T13:49:56.399Z,11.47
2017-08-29T13:51:58.869Z,12.23
2017-08-29T13:54:01.346Z,11.37
2017-08-29T13:56:03.867Z,13.30
2017-08-29T13:58:06.389Z,12.57
2017-08-29T14:00:08.855Z,12.00
2017-08-29T14:02:11.573Z,13.33
2017-08-29T14:04:14.057Z,12.10
2017-08-29T14:06:16.530Z,12.07
2017-08-29T14:08:19.101Z,12.20
2017-08-29T14:10:21.605Z,11.80
2017-08-29T14:12:24.079Z,15.13
2017-08-29T14:14:27.018Z,10.80
2017-08-29T14:16:29.556Z,13.17
2017-08-29T14:18:32.050Z,13.13
2017-08-29T14:20:34.610Z,12.00
2017-08-29T14:22:37.090Z,13.00
2017-08-29T14:24:39.585Z,16.73
2017-08-29T14:26:42.149Z,11.80
2017-08-29T14:28:44.627Z,10.70
2017-08-29T14:30:47.095Z,11.27
2017-08-29T14:32:49.646Z,15.17
2017-08-29T14:34:52.123Z,12.63
2017-08-29T14:36:54.653Z,11.17
2017-08-29T14:38:57.213Z,11.30
2017-08-29T14:40:59.742Z,11.73
2017-08-29T14:43:02.250Z,11.63
2017-08-29T14:45:04.791Z,10.80
2017-08-29T14:47:19.159Z,10.30
2017-08-29T14:49:21.642Z,11.33
2017-08-29T14:51:24.262Z,11.77
2017-08-29T14:53:26.738Z,11.00
2017-08-29T14:55:29.246Z,10.43
2017-08-29T14:57:31.798Z,13.83
2017-08-29T14:59:34.271Z,13.37
2017-08-29T15:01:36.764Z,12.90
2017-08-29T15:03:39.309Z,16.03
2017-08-29T15:05:41.809Z,17.20
2017-08-29T15:07:44.285Z,12.40
2017-08-29T15:09:46.836Z,11.27
2017-08-29T15:11:49.319Z,11.57
2017-08-29T15:13:51.797Z,14.97
2017-08-29T15:15:55.543Z,11.20
2017-08-29T15:17:58.024Z,13.87
2017-08-29T15:20:00.581Z,13.37
2017-08-29T15:22:03.150Z,11.63
2017-08-29T15:24:05.645Z,12.00
2017-08-29T15:26:08.129Z,11.23
2017-08-29T15:28:10.818Z,12.80
2017-08-29T15:30:14.679Z,16.60
2017-08-29T15:32:17.894Z,14.37
2017-08-29T15:34:20.437Z,14.17
2017-08-29T15:36:22.934Z,11.30
2017-08-29T15:38:25.425Z,10.63
2017-08-29T15:40:27.957Z,11.07
2017-08-29T15:42:30.470Z,11.60
2017-08-29T15:44:32.957Z,13.33
2017-08-29T15:46:35.518Z,10.70
2017-08-29T15:48:38.003Z,11.67
2017-08-29T15:50:40.468Z,11.50
2017-08-29T15:52:43.032Z,10.73
2017-08-29T15:54:45.559Z,14.43
2017-08-29T15:56:48.022Z,10.57
2017-08-29T15:58:50.583Z,9.97
2017-08-29T16:00:53.061Z,12.53
2017-08-29T16:02:55.595Z,10.33
2017-08-29T16:04:58.322Z,13.30
2017-08-29T16:07:00.793Z,10.57
2017-08-29T16:09:03.350Z,10.33
2017-08-29T16:11:05.901Z,11.93
2017-08-29T16:13:08.377Z,13.20
2017-08-29T16:15:10.866Z,10.10
2017-08-29T16:17:13.492Z,10.20
2017-08-29T16:19:15.974Z,16.00
2017-08-29T16:21:18.441Z,11.50
2017-08-29T16:23:20.991Z,12.50
2017-08-29T16:25:23.523Z,14.50
2017-08-29T16:27:25.985Z,13.23
2017-08-29T16:29:28.532Z,13.07
2017-08-29T16:31:31.001Z,11.67
2017-08-29T16:33:33.473Z,11.53
2017-08-29T16:35:36.033Z,11.60
2017-08-29T16:37:38.496Z,11.63
2017-08-29T16:39:41.020Z,10.63
2017-08-29T16:41:43.593Z,11.87
2017-08-29T16:43:46.104Z,11.37
2017-08-29T16:45:48.590Z,11.43
2017-08-29T16:47:51.119Z,10.70
2017-08-29T16:49:53.624Z,12.30
2017-08-29T16:51:56.104Z,12.83
2017-08-29T16:53:58.641Z,14.40
2017-08-29T16:56:01.109Z,11.40
2017-08-29T16:58:03.629Z,17.23
2017-08-29T17:00:06.153Z,11.20
2017-08-29T17:02:08.691Z,13.73
2017-08-29T17:04:11.279Z,11.73
2017-08-29T17:06:13.902Z,10.70
2017-08-29T17:08:16.392Z,12.73
2017-08-29T17:10:18.905Z,15.93
2017-08-29T17:12:21.459Z,15.37
2017-08-29T17:14:23.976Z,20.43
2017-08-29T17:16:26.459Z,15.63
2017-08-29T17:18:29.099Z,14.00
2017-08-29T17:20:31.582Z,14.67
2017-08-29T17:22:34.044Z,17.10
2017-08-29T17:24:36.593Z,12.50
2017-08-29T17:26:39.058Z,16.13
2017-08-29T17:28:41.549Z,14.63
2017-08-29T17:30:44.086Z,19.13
2017-08-29T17:32:46.769Z,12.50
2017-08-29T17:34:49.275Z,15.30
2017-08-29T17:36:51.822Z,17.87
2017-08-29T17:38:54.305Z,16.57
2017-08-29T17:40:56.824Z,16.03
2017-08-29T17:42:59.363Z,17.93
2017-08-29T17:45:01.839Z,15.30
2017-08-29T17:47:04.309Z,11.17
2017-08-29T17:49:06.847Z,15.50
2017-08-29T17:51:09.383Z,15.53
2017-08-29T17:53:11.861Z,13.73
2017-08-29T17:55:14.411Z,13.10
2017-08-29T17:57:16.894Z,12.80
2017-08-29T17:59:19.391Z,19.50
2017-08-29T18:01:21.961Z,12.23
2017-08-29T18:03:24.440Z,15.23
2017-08-29T18:05:26.996Z,15.90
2017-08-29T18:07:30.703Z,16.30
2017-08-29T18:09:33.225Z,13.50
2017-08-29T18:11:35.693Z,19.17
2017-08-29T18:13:38.262Z,20.90
2017-08-29T18:15:40.798Z,12.33
2017-08-29T18:17:43.275Z,16.27
2017-08-29T18:19:46.242Z,14.80
2017-08-29T18:21:48.725Z,14.13
2017-08-29T18:23:51.222Z,16.90
2017-08-29T18:25:53.779Z,13.30
2017-08-29T18:27:56.279Z,14.27
2017-08-29T18:29:58.781Z,13.90
2017-08-29T18:32:01.357Z,14.80
2017-08-29T18:34:03.956Z,15.30
2017-08-29T18:36:06.455Z,15.20
2017-08-29T18:38:10.446Z,15.63
2017-08-29T18:40:13.007Z,17.70
2017-08-29T18:42:15.486Z,14.20
2017-08-29T18:44:18.035Z,13.33
2017-08-29T18:46:20.516Z,15.53
2017-08-29T18:48:22.989Z,20.53
2017-08-29T18:50:25.625Z,12.73
2017-08-29T18:52:28.105Z,16.60
2017-08-29T18:54:30.593Z,13.90
2017-08-29T18:56:33.181Z,16.70
2017-08-29T18:58:35.671Z,13.77
2017-08-29T19:00:38.158Z,14.03
2017-08-29T19:02:40.816Z,13.50
2017-08-29T19:04:43.293Z,14.03
2017-08-29T19:06:46.462Z,16.83
2017-08-29T19:08:49.029Z,12.17
2017-08-29T19:10:51.525Z,13.30
2017-08-29T19:12:53.993Z,18.50
2017-08-29T19:14:56.996Z,14.33
2017-08-29T19:16:59.492Z,13.83
2017-08-29T19:19:01.980Z,13.80
2017-08-29T19:21:05.082Z,12.83
2017-08-29T19:23:07.630Z,20.67
2017-08-29T19:25:10.213Z,13.47
2017-08-29T19:27:12.754Z,12.70
2017-08-29T19:29:15.263Z,12.63
2017-08-29T19:31:18.065Z,12.10
2017-08-29T19:33:21.586Z,11.63
2017-08-29T19:35:24.178Z,17.97
2017-08-29T19:37:26.649Z,13.83
2017-08-29T19:39:29.792Z,13.40
2017-08-29T19:41:32.506Z,19.07
2017-08-29T19:43:35.022Z,14.37
2017-08-29T19:45:37.572Z,20.63
2017-08-29T19:47:40.082Z,18.80
2017-08-29T19:49:42.583Z,18.20
2017-08-29T19:51:45.929Z,20.93
2017-08-29T19:53:49.600Z,17.03
2017-08-29T19:55:52.222Z,20.67
2017-08-29T19:57:54.799Z,17.40
2017-08-29T19:59:57.279Z,14.90
2017-08-29T20:01:59.769Z,15.80
2017-08-29T20:04:02.409Z,14.13
2017-08-29T20:06:04.907Z,15.90
2017-08-29T20:08:07.442Z,15.37
2017-08-29T20:10:09.974Z,18.83
2017-08-29T20:12:12.511Z,18.80
2017-08-29T20:14:15.020Z,13.37
2017-08-29T20:16:17.561Z,14.50
2017-08-29T20:18:20.066Z,12.50
2017-08-29T20:20:22.566Z,14.80
2017-08-29T20:22:25.237Z,13.93
2017-08-29T20:24:28.285Z,11.73
2017-08-29T20:26:30.770Z,12.53
2017-08-29T20:28:33.335Z,12.20
2017-08-29T20:30:35.839Z,12.37
2017-08-29T20:32:38.369Z,11.70
2017-08-29T20:34:40.906Z,14.33
2017-08-29T20:36:43.392Z,13.17
2017-08-29T20:38:45.869Z,11.17
2017-08-29T20:40:48.455Z,14.00
2017-08-29T20:42:50.940Z,12.93
2017-08-29T20:44:53.434Z,12.53
2017-08-29T20:46:56.070Z,14.03
2017-08-29T20:48:58.549Z,13.10
2017-08-29T20:51:01.025Z,16.27
2017-08-29T20:53:03.550Z,16.30
2017-08-29T20:55:06.062Z,16.13
2017-08-29T20:57:08.544Z,12.33
2017-08-29T20:59:11.109Z,13.00
2017-08-29T21:01:13.591Z,15.97
2017-08-29T21:03:16.057Z,14.40
2017-08-29T21:05:18.583Z,14.67
2017-08-29T21:07:21.075Z,11.90
2017-08-29T21:09:23.547Z,15.80
2017-08-29T21:11:26.100Z,16.53
2017-08-29T21:13:28.617Z,16.80
2017-08-29T21:15:31.093Z,14.50
2017-08-29T21:17:33.624Z,11.80
2017-08-29T21:19:36.126Z,12.83
2017-08-29T21:21:38.602Z,13.90
2017-08-29T21:23:41.215Z,12.90
2017-08-29T21:25:43.701Z,17.33
2017-08-29T21:27:46.207Z,10.70
2017-08-29T21:29:48.762Z,14.17
2017-08-29T21:31:51.255Z,14.33
2017-08-29T21:33:53.750Z,17.13
2017-08-29T21:35:57.661Z,13.77
2017-08-29T21:38:00.142Z,11.00
2017-08-29T21:40:02.608Z,11.97
2017-08-29T21:42:05.153Z,12.60
2017-08-29T21:44:07.647Z,12.80
2017-08-29T21:46:10.126Z,12.63
2017-08-29T21:48:12.664Z,11.57
2017-08-29T21:50:15.133Z,14.77
2017-08-29T21:52:17.612Z,15.30
2017-08-29T21:54:20.146Z,18.60
2017-08-29T21:56:22.604Z,16.13
2017-08-29T21:58:25.087Z,14.90
2017-08-29T22:00:30.605Z,13.50
2017-08-29T22:02:33.094Z,11.97
2017-08-29T22:04:35.581Z,12.93
2017-08-29T22:06:38.110Z,15.27
2017-08-29T22:08:40.579Z,13.73
2017-08-29T22:10:43.047Z,16.47
2017-08-29T22:12:45.589Z,10.50
2017-08-29T22:14:48.078Z,13.50
2017-08-29T22:16:50.552Z,13.00
2017-08-29T22:18:53.091Z,12.27
2017-08-29T22:20:55.557Z,14.13
2017-08-29T22:22:58.025Z,17.93
2017-08-29T22:25:00.719Z,11.07
2017-08-29T22:27:03.190Z,10.83
2017-08-29T22:29:05.658Z,13.03
2017-08-29T22:31:08.185Z,11.70
2017-08-29T22:33:10.677Z,14.27
2017-08-29T22:35:13.181Z,13.20
2017-08-29T22:37:15.718Z,12.23
2017-08-29T22:39:18.204Z,13.57
2017-08-29T22:41:20.668Z,14.87
2017-08-29T22:43:23.235Z,13.07
2017-08-29T22:45:25.700Z,10.60
2017-08-29T22:47:28.172Z,13.37
2017-08-29T22:49:30.689Z,14.93
2017-08-29T22:51:33.149Z,11.70
2017-08-29T22:53:35.628Z,11.77
2017-08-29T22:55:38.180Z,14.33
2017-08-29T22:57:40.649Z,12.80
2017-08-29T22:59:43.118Z,12.80
2017-08-29T23:01:45.652Z,19.03
2017-08-29T23:03:48.132Z,15.10
2017-08-29T23:05:50.594Z,10.77
2017-08-29T23:07:53.141Z,12.23
2017-08-29T23:09:55.615Z,15.27
2017-08-29T23:11:58.079Z,13.50
2017-08-29T23:14:00.622Z,11.13
2017-08-29T23:16:03.089Z,10.83
2017-08-29T23:18:05.552Z,11.33
2017-08-29T23:20:08.094Z,14.70
2017-08-29T23:22:10.735Z,10.97
2017-08-29T23:24:13.229Z,12.50
2017-08-29T23:26:16.126Z,11.50
2017-08-29T23:28:18.601Z,11.77
2017-08-29T23:30:21.077Z,11.47
2017-08-29T23:32:23.640Z,12.70
2017-08-29T23:34:26.114Z,12.07
2017-08-29T23:36:28.585Z,13.40
2017-08-29T23:38:31.111Z,14.90
2017-08-29T23:40:33.597Z,11.43
2017-08-29T23:42:36.101Z,12.80
2017-08-29T23:44:38.663Z,13.87
2017-08-29T23:46:41.148Z,13.17
2017-08-29T23:48:43.661Z,18.73
2017-08-29T23:50:46.214Z,17.10
2017-08-29T23:52:48.714Z,14.27
2017-08-29T23:54:51.203Z,12.90
2017-08-29T23:59:02.678Z,10.90
